createdAt,value
2022-09-05T00:02:01.148Z,20.44
2022-09-05T00:04:54.488Z,20.45
2022-09-05T00:07:59.102Z,20.48
2022-09-05T00:10:35.978Z,20.52
2022-09-05T00:13:19.812Z,20.51
2022-09-05T00:16:08.294Z,20.53
2022-09-05T00:23:52.896Z,20.54
2022-09-05T00:24:27.139Z,20.60
2022-09-05T00:25:21.353Z,20.22
2022-09-05T00:28:26.598Z,20.11
2022-09-05T00:31:55.519Z,20.01
2022-09-05T00:34:21.594Z,20.09
2022-09-05T00:36:55.101Z,20.22
2022-09-05T00:39:33.661Z,20.30
2022-09-05T00:42:07.318Z,20.38
2022-09-05T00:44:38.503Z,20.43
2022-09-05T00:47:27.706Z,20.40
2022-09-05T00:50:07.834Z,20.32
2022-09-05T00:52:50.550Z,20.28
2022-09-05T00:55:50.802Z,20.24
2022-09-05T00:58:22.229Z,20.23
2022-09-05T01:00:53.398Z,20.19
2022-09-05T01:03:47.866Z,20.13
2022-09-05T01:06:20.956Z,20.15
2022-09-05T01:09:10.730Z,20.20
2022-09-05T01:12:09.483Z,20.26
2022-09-05T01:15:08.382Z,20.30
2022-09-05T01:17:56.671Z,20.27
2022-09-05T01:20:38.444Z,20.39
2022-09-05T01:23:09.423Z,20.18
2022-09-05T01:25:55.372Z,19.71
2022-09-05T01:29:16.558Z,19.86
2022-09-05T01:32:03.617Z,20.08
2022-09-05T01:34:48.453Z,20.19
2022-09-05T01:37:47.061Z,20.24
2022-09-05T01:40:26.036Z,20.27
2022-09-05T01:43:23.791Z,20.34
2022-09-05T01:45:59.168Z,20.37
2022-09-05T01:48:48.670Z,20.39
2022-09-05T01:51:42.103Z,20.39
2022-09-05T01:54:37.682Z,20.46
2022-09-05T01:57:42.420Z,20.38
2022-09-05T02:00:14.377Z,20.37
2022-09-05T02:03:01.076Z,20.32
2022-09-05T02:06:01.261Z,20.33
2022-09-05T02:08:51.874Z,20.14
2022-09-05T02:11:35.836Z,20.13
2022-09-05T02:14:24.373Z,20.23
2022-09-05T02:17:37.133Z,20.25
2022-09-05T02:20:23.583Z,20.06
2022-09-05T02:23:40.495Z,20.16
2022-09-05T02:26:34.385Z,20.20
2022-09-05T02:29:36.600Z,20.28
2022-09-05T02:32:09.397Z,20.31
2022-09-05T02:34:41.908Z,20.29
2022-09-05T02:37:32.377Z,20.25
2022-09-05T02:45:01.506Z,20.22
2022-09-05T02:45:20.776Z,20.16
2022-09-05T02:46:37.952Z,20.20
2022-09-05T02:50:36.367Z,20.23
2022-09-05T02:57:25.866Z,20.14
2022-09-05T02:57:36.374Z,20.07
2022-09-05T02:58:07.610Z,19.99
2022-09-05T03:00:44.741Z,20.07
2022-09-05T03:03:22.468Z,20.04
2022-09-05T03:06:00.228Z,20.07
2022-09-05T03:08:47.833Z,20.09
2022-09-05T03:11:49.504Z,20.15
2022-09-05T03:14:44.833Z,20.17
2022-09-05T03:17:28.276Z,20.13
2022-09-05T03:19:54.781Z,20.14
2022-09-05T03:23:09.664Z,20.15
2022-09-05T03:26:13.129Z,20.18
2022-09-05T03:28:58.423Z,20.21
2022-09-05T03:31:36.254Z,20.18
2022-09-05T03:34:24.078Z,20.19
2022-09-05T03:37:14.872Z,20.21
2022-09-05T03:40:16.159Z,20.21
2022-09-05T03:42:57.836Z,20.21
2022-09-05T03:45:36.914Z,20.27
2022-09-05T03:48:41.601Z,20.25
2022-09-05T03:57:08.512Z,20.09
2022-09-05T03:57:27.200Z,20.13
2022-09-05T03:58:55.406Z,20.16
2022-09-05T04:04:39.249Z,20.18
2022-09-05T04:08:07.676Z,20.23
2022-09-05T04:08:15.460Z,20.24
2022-09-05T04:11:02.650Z,20.29
2022-09-05T04:13:45.491Z,20.29
2022-09-05T04:16:29.539Z,20.29
2022-09-05T04:19:12.109Z,20.25
2022-09-05T04:21:50.880Z,20.26
2022-09-05T04:24:34.321Z,20.30
2022-09-05T04:27:15.500Z,20.26
2022-09-05T04:30:00.181Z,20.27
2022-09-05T04:32:37.565Z,20.26
2022-09-05T04:35:25.534Z,20.29
2022-09-05T04:37:55.326Z,20.27
2022-09-05T04:41:03.415Z,20.27
2022-09-05T04:43:50.782Z,20.27
2022-09-05T04:46:25.495Z,20.28
2022-09-05T04:49:14.077Z,20.32
2022-09-05T04:52:01.548Z,20.35
2022-09-05T04:54:40.584Z,20.31
2022-09-05T04:57:30.616Z,20.33
2022-09-05T05:02:12.771Z,20.19
2022-09-05T05:06:11.903Z,20.22
2022-09-05T05:06:30.016Z,20.25
2022-09-05T05:08:55.669Z,20.18
2022-09-05T05:17:56.131Z,20.22
2022-09-05T05:18:10.724Z,20.21
2022-09-05T05:18:42.275Z,20.19
2022-09-05T05:20:56.008Z,20.19
2022-09-05T05:23:43.638Z,20.13
2022-09-05T05:26:26.522Z,20.12
2022-09-05T05:29:09.876Z,20.17
2022-09-05T05:31:45.723Z,20.19
2022-09-05T05:34:32.322Z,20.21
2022-09-05T05:37:17.252Z,20.29
2022-09-05T05:39:57.414Z,20.21
2022-09-05T05:42:24.542Z,20.25
2022-09-05T05:44:57.557Z,20.25
2022-09-05T05:47:31.474Z,20.29
2022-09-05T05:50:05.150Z,20.29
2022-09-05T05:53:00.897Z,20.30
2022-09-05T05:56:04.685Z,20.26
2022-09-05T05:58:52.118Z,20.27
2022-09-05T06:01:37.648Z,20.13
2022-09-05T06:04:47.850Z,20.20
2022-09-05T06:07:17.305Z,20.13
2022-09-05T06:14:51.107Z,20.09
2022-09-05T06:14:55.863Z,20.21
2022-09-05T06:16:56.737Z,20.21
2022-09-05T06:22:03.918Z,20.08
2022-09-05T06:23:36.799Z,20.06
2022-09-05T06:26:19.426Z,19.99
2022-09-05T06:29:05.420Z,19.68
2022-09-05T06:31:50.616Z,19.57
2022-09-05T06:34:32.628Z,19.67
2022-09-05T06:37:07.500Z,19.72
2022-09-05T06:39:58.506Z,19.54
2022-09-05T06:43:00.491Z,19.52
2022-09-05T06:45:58.472Z,19.57
2022-09-05T06:49:33.514Z,19.53
2022-09-05T06:52:27.863Z,19.60
2022-09-05T06:55:04.705Z,19.59
2022-09-05T06:57:33.974Z,19.61
2022-09-05T07:00:24.271Z,19.67
2022-09-05T07:03:00.790Z,19.75
2022-09-05T07:05:39.809Z,19.81
2022-09-05T07:09:08.951Z,19.76
2022-09-05T07:12:07.241Z,19.77
2022-09-05T07:14:57.177Z,19.78
2022-09-05T07:18:09.150Z,19.80
2022-09-05T07:21:17.259Z,19.71
2022-09-05T07:24:08.944Z,19.65
2022-09-05T07:26:54.786Z,19.59
2022-09-05T07:29:29.666Z,19.56
2022-09-05T07:31:59.677Z,19.57
2022-09-05T07:34:31.447Z,19.49
2022-09-05T07:37:14.745Z,19.48
2022-09-05T07:40:04.015Z,19.51
2022-09-05T07:43:10.033Z,19.59
2022-09-05T07:45:55.381Z,19.59
2022-09-05T07:48:34.931Z,19.60
2022-09-05T07:56:20.642Z,19.53
2022-09-05T07:56:49.543Z,19.60
2022-09-05T07:57:22.681Z,19.61
2022-09-05T07:59:40.212Z,19.61
2022-09-05T08:02:10.216Z,19.63
2022-09-05T08:04:39.577Z,19.65
2022-09-05T08:07:49.877Z,19.72
2022-09-05T08:10:35.679Z,19.71
2022-09-05T08:13:24.765Z,19.64
2022-09-05T08:16:13.762Z,19.71
2022-09-05T08:18:46.368Z,19.70
2022-09-05T08:21:28.363Z,19.74
2022-09-05T08:24:13.818Z,19.78
2022-09-05T08:26:46.899Z,19.81
2022-09-05T08:29:23.276Z,19.89
2022-09-05T08:32:00.335Z,19.93
2022-09-05T08:34:50.103Z,20.01
2022-09-05T08:37:22.198Z,20.09
2022-09-05T08:39:57.565Z,20.12
2022-09-05T08:45:22.783Z,20.25
2022-09-05T08:46:47.453Z,20.30
2022-09-05T08:49:32.201Z,20.40
2022-09-05T08:52:08.238Z,20.46
2022-09-05T08:55:07.176Z,20.43
2022-09-05T08:57:46.738Z,20.41
2022-09-05T09:00:24.585Z,20.40
2022-09-05T09:03:04.361Z,20.47
2022-09-05T09:06:08.515Z,20.53
2022-09-05T09:08:52.634Z,20.51
2022-09-05T09:11:36.950Z,20.52
2022-09-05T09:14:30.484Z,20.44
2022-09-05T09:17:02.063Z,20.49
2022-09-05T09:19:46.398Z,20.54
2022-09-05T09:22:36.726Z,20.56
2022-09-05T09:25:25.883Z,20.60
2022-09-05T09:28:50.214Z,20.62
2022-09-05T09:31:38.675Z,20.66
2022-09-05T09:34:26.798Z,20.70
2022-09-05T09:37:26.799Z,20.70
2022-09-05T09:40:37.503Z,20.74
2022-09-05T09:43:30.904Z,20.57
2022-09-05T09:46:12.096Z,20.64
2022-09-05T09:48:47.826Z,20.74
2022-09-05T09:51:35.930Z,20.59
2022-09-05T09:54:17.678Z,20.64
2022-09-05T09:56:49.939Z,20.70
2022-09-05T09:59:54.144Z,20.73
2022-09-05T10:05:41.486Z,20.78
2022-09-05T10:10:34.637Z,20.85
2022-09-05T10:10:46.526Z,20.94
2022-09-05T10:12:05.202Z,21.11
2022-09-05T10:14:49.433Z,21.18
2022-09-05T10:17:51.777Z,21.25
2022-09-05T10:20:41.708Z,21.31
2022-09-05T10:23:08.290Z,21.42
2022-09-05T10:26:12.238Z,21.50
2022-09-05T10:28:57.984Z,21.54
2022-09-05T10:33:25.735Z,21.56
2022-09-05T10:35:13.893Z,21.58
2022-09-05T10:37:41.966Z,21.70
2022-09-05T10:40:13.264Z,21.77
2022-09-05T10:43:00.471Z,21.84
2022-09-05T10:46:01.164Z,21.95
2022-09-05T10:48:38.409Z,21.97
2022-09-05T10:51:27.925Z,22.06
2022-09-05T10:54:01.206Z,22.12
2022-09-05T10:56:50.766Z,22.17
2022-09-05T11:02:24.630Z,22.17
2022-09-05T11:02:36.767Z,22.26
2022-09-05T11:05:49.431Z,22.27
2022-09-05T11:08:45.960Z,22.30
2022-09-05T11:11:34.046Z,22.35
2022-09-05T11:14:26.179Z,22.41
2022-09-05T11:17:07.072Z,22.45
2022-09-05T11:19:47.939Z,22.45
2022-09-05T11:22:23.589Z,22.56
2022-09-05T11:25:02.468Z,22.57
2022-09-05T11:27:40.053Z,22.61
2022-09-05T11:30:08.163Z,22.49
2022-09-05T11:38:43.948Z,22.49
2022-09-05T11:39:52.868Z,22.55
2022-09-05T11:40:04.353Z,22.56
2022-09-05T11:42:26.904Z,22.53
2022-09-05T11:45:26.098Z,22.54
2022-09-05T11:48:31.991Z,22.72
2022-09-05T11:51:17.438Z,22.77
2022-09-05T11:53:46.899Z,22.87
2022-09-05T11:56:28.491Z,22.91
2022-09-05T11:59:10.845Z,22.93
2022-09-05T12:01:49.247Z,23.02
2022-09-05T12:04:21.565Z,23.19
2022-09-05T12:07:26.391Z,23.29
2022-09-05T12:10:46.799Z,23.40
2022-09-05T12:13:24.519Z,23.47
2022-09-05T12:16:07.324Z,23.48
2022-09-05T12:19:19.209Z,23.59
2022-09-05T12:22:08.811Z,23.65
2022-09-05T12:25:27.248Z,23.71
2022-09-05T12:27:49.854Z,23.72
2022-09-05T12:30:36.419Z,23.63
2022-09-05T12:36:01.854Z,23.61
2022-09-05T12:40:16.646Z,23.66
2022-09-05T12:40:55.232Z,23.79
2022-09-05T12:44:37.491Z,23.76
2022-09-05T12:48:38.484Z,23.79
2022-09-05T12:51:09.154Z,23.82
2022-09-05T12:53:57.540Z,23.82
2022-09-05T12:58:35.977Z,23.88
2022-09-05T13:02:57.471Z,23.93
2022-09-05T13:03:11.348Z,23.95
2022-09-05T13:05:17.141Z,24.10
2022-09-05T13:07:50.282Z,23.95
2022-09-05T13:13:47.008Z,23.97
2022-09-05T13:14:57.663Z,23.93
2022-09-05T13:16:23.832Z,23.84
2022-09-05T13:19:07.387Z,23.98
2022-09-05T13:21:40.247Z,24.06
2022-09-05T13:24:14.486Z,24.21
2022-09-05T13:26:44.007Z,24.32
2022-09-05T13:29:18.352Z,24.37
2022-09-05T13:37:56.411Z,24.46
2022-09-05T13:38:07.747Z,24.53
2022-09-05T13:38:14.436Z,24.68
2022-09-05T13:40:43.599Z,24.79
2022-09-05T13:43:15.231Z,24.86
2022-09-05T13:46:11.028Z,24.87
2022-09-05T13:51:38.944Z,24.98
2022-09-05T13:54:20.638Z,25.05
2022-09-05T13:57:16.357Z,25.09
2022-09-05T14:00:07.124Z,25.09
2022-09-05T14:03:38.987Z,25.18
2022-09-05T14:06:45.062Z,25.26
2022-09-05T14:09:41.333Z,25.38
2022-09-05T14:12:29.378Z,25.55
2022-09-05T14:15:10.506Z,25.42
2022-09-05T14:18:21.429Z,25.41
2022-09-05T14:21:17.094Z,25.49
2022-09-05T14:23:53.739Z,25.55
2022-09-05T14:26:26.635Z,25.50
2022-09-05T14:29:32.479Z,25.43
2022-09-05T14:37:34.884Z,25.44
2022-09-05T14:37:54.705Z,25.41
2022-09-05T14:38:50.930Z,25.37
2022-09-05T14:41:44.280Z,25.31
2022-09-05T14:44:46.446Z,25.41
2022-09-05T14:47:35.030Z,25.56
2022-09-05T14:50:04.160Z,25.74
2022-09-05T14:52:35.534Z,25.81
2022-09-05T15:02:43.424Z,25.90
2022-09-05T15:02:45.421Z,25.79
2022-09-05T15:06:35.579Z,25.58
2022-09-05T15:11:24.401Z,25.59
2022-09-05T15:12:27.593Z,25.57
2022-09-05T15:14:45.140Z,25.62
2022-09-05T15:17:22.084Z,25.63
2022-09-05T15:20:06.439Z,25.78
2022-09-05T15:22:41.845Z,25.83
2022-09-05T15:25:19.250Z,25.85
2022-09-05T15:27:46.968Z,25.88
2022-09-05T15:30:35.658Z,25.75
2022-09-05T15:33:26.325Z,25.69
2022-09-05T15:35:53.724Z,25.63
2022-09-05T15:38:30.245Z,25.58
2022-09-05T15:41:11.899Z,25.70
2022-09-05T15:43:51.384Z,25.76
2022-09-05T15:46:34.238Z,25.72
2022-09-05T15:49:03.985Z,25.76
2022-09-05T15:51:44.857Z,25.72
2022-09-05T15:54:30.707Z,25.66
2022-09-05T15:57:17.812Z,25.69
2022-09-05T15:59:49.040Z,25.71
2022-09-05T16:02:21.616Z,25.59
2022-09-05T16:10:28.350Z,25.66
2022-09-05T16:10:38.384Z,25.65
2022-09-05T16:11:13.992Z,25.62
2022-09-05T16:13:52.507Z,25.60
2022-09-05T16:22:54.851Z,25.54
2022-09-05T16:23:18.080Z,25.55
2022-09-05T16:23:31.195Z,25.49
2022-09-05T16:25:09.348Z,25.40
2022-09-05T16:27:50.817Z,25.32
2022-09-05T16:30:21.980Z,25.23
2022-09-05T16:32:50.924Z,25.16
2022-09-05T16:35:18.859Z,25.14
2022-09-05T16:38:03.357Z,25.06
2022-09-05T16:40:38.015Z,25.05
2022-09-05T16:43:26.433Z,25.00
2022-09-05T16:45:58.175Z,24.98
2022-09-05T16:48:33.875Z,24.95
2022-09-05T16:51:13.173Z,24.89
2022-09-05T16:53:58.468Z,24.82
2022-09-05T16:56:47.826Z,24.70
2022-09-05T16:59:21.607Z,24.69
2022-09-05T17:01:54.823Z,24.55
2022-09-05T17:05:04.593Z,24.34
2022-09-05T17:07:42.045Z,24.27
2022-09-05T17:10:12.373Z,24.09
2022-09-05T17:12:45.285Z,24.01
2022-09-05T17:15:19.864Z,23.96
2022-09-05T17:18:22.617Z,23.97
2022-09-05T17:20:54.954Z,23.89
2022-09-05T17:26:16.164Z,23.89
2022-09-05T17:29:34.132Z,23.85
2022-09-05T17:32:35.065Z,23.86
2022-09-05T17:35:17.190Z,23.84
2022-09-05T17:38:11.567Z,23.84
2022-09-05T17:40:59.351Z,23.81
2022-09-05T17:43:30.656Z,23.78
2022-09-05T17:46:26.870Z,23.76
2022-09-05T17:49:19.988Z,23.77
2022-09-05T17:51:52.535Z,23.68
2022-09-05T17:54:30.364Z,23.63
2022-09-05T17:57:28.914Z,23.59
2022-09-05T18:00:12.030Z,23.36
2022-09-05T18:02:58.521Z,23.42
2022-09-05T18:05:53.997Z,23.43
2022-09-05T18:08:46.575Z,23.38
2022-09-05T18:11:25.492Z,23.19
2022-09-05T18:14:00.205Z,23.27
2022-09-05T18:16:31.287Z,23.28
2022-09-05T18:19:32.971Z,23.24
2022-09-05T18:25:16.676Z,23.25
2022-09-05T18:28:08.966Z,23.25
2022-09-05T18:33:53.991Z,23.19
2022-09-05T18:36:18.492Z,23.05
2022-09-05T18:39:24.776Z,23.02
2022-09-05T18:42:26.497Z,22.94
2022-09-05T18:45:01.354Z,22.75
2022-09-05T18:47:59.687Z,22.83
2022-09-05T18:50:36.407Z,22.73
2022-09-05T18:53:13.160Z,22.77
2022-09-05T18:56:11.617Z,22.76
2022-09-05T18:59:09.540Z,22.67
2022-09-05T19:01:43.693Z,22.65
2022-09-05T19:04:40.947Z,22.62
2022-09-05T19:07:12.806Z,22.61
2022-09-05T19:10:00.834Z,22.64
2022-09-05T19:12:54.322Z,22.62
2022-09-05T19:15:24.840Z,22.59
2022-09-05T19:18:03.721Z,22.55
2022-09-05T19:21:19.259Z,22.46
2022-09-05T19:23:52.496Z,22.27
2022-09-05T19:26:21.069Z,22.38
2022-09-05T19:36:45.641Z,22.33
2022-09-05T19:36:48.764Z,22.11
2022-09-05T19:37:07.574Z,22.20
2022-09-05T19:37:47.905Z,22.17
2022-09-05T19:45:48.946Z,22.22
2022-09-05T19:47:38.726Z,22.26
2022-09-05T19:47:43.284Z,22.31
2022-09-05T19:49:08.745Z,22.34
2022-09-05T19:51:36.548Z,22.37
2022-09-05T19:54:05.405Z,22.34
2022-09-05T19:56:45.853Z,22.23
2022-09-05T19:59:22.833Z,22.27
2022-09-05T20:01:51.872Z,22.19
2022-09-05T20:04:19.536Z,22.05
2022-09-05T20:06:48.476Z,21.99
2022-09-05T20:09:16.924Z,21.91
2022-09-05T20:11:54.782Z,21.88
2022-09-05T20:14:21.452Z,21.97
2022-09-05T20:16:50.463Z,21.79
2022-09-05T20:19:29.028Z,21.72
2022-09-05T20:22:18.726Z,21.60
2022-09-05T20:24:50.214Z,21.56
2022-09-05T20:27:17.231Z,21.61
2022-09-05T20:30:18.927Z,21.55
2022-09-05T20:32:52.322Z,21.66
2022-09-05T20:39:14.111Z,21.77
2022-09-05T20:43:21.186Z,21.74
2022-09-05T20:43:35.800Z,21.74
2022-09-05T20:44:25.000Z,21.78
2022-09-05T20:52:24.459Z,21.79
2022-09-05T20:54:10.490Z,21.78
2022-09-05T20:54:12.981Z,21.71
2022-09-05T20:55:42.025Z,21.51
2022-09-05T20:58:20.956Z,21.57
2022-09-05T21:01:19.530Z,21.45
2022-09-05T21:03:53.579Z,21.53
2022-09-05T21:06:23.539Z,21.54
2022-09-05T21:08:52.168Z,21.54
2022-09-05T21:11:29.660Z,21.43
2022-09-05T21:13:59.298Z,21.38
2022-09-05T21:16:31.840Z,21.46
2022-09-05T21:18:58.650Z,21.45
2022-09-05T21:21:32.005Z,21.20
2022-09-05T21:24:17.705Z,21.23
2022-09-05T21:26:49.825Z,21.30
2022-09-05T21:29:27.495Z,21.37
2022-09-05T21:32:02.403Z,21.27
2022-09-05T21:34:43.429Z,21.27
2022-09-05T21:37:14.239Z,21.24
2022-09-05T21:39:58.870Z,21.24
2022-09-05T21:47:33.203Z,21.27
2022-09-05T21:47:41.843Z,21.24
2022-09-05T21:48:13.355Z,21.26
2022-09-05T21:50:42.907Z,21.19
2022-09-05T21:55:44.191Z,21.21
2022-09-05T21:59:19.474Z,21.14
2022-09-05T21:59:32.701Z,21.22
2022-09-05T22:01:51.770Z,21.22
2022-09-05T22:04:22.238Z,21.09
2022-09-05T22:06:49.747Z,21.06
2022-09-05T22:09:17.987Z,21.06
2022-09-05T22:11:50.433Z,20.97
2022-09-05T22:14:22.703Z,21.01
2022-09-05T22:16:52.186Z,21.08
2022-09-05T22:19:31.922Z,21.08
2022-09-05T22:22:16.635Z,21.09
2022-09-05T22:25:02.059Z,21.09
2022-09-05T22:27:31.768Z,21.12
2022-09-05T22:29:58.610Z,21.13
2022-09-05T22:32:35.099Z,21.12
2022-09-05T22:35:27.920Z,21.13
2022-09-05T22:38:00.195Z,20.89
2022-09-05T22:40:29.218Z,20.77
2022-09-05T22:42:57.893Z,20.31
2022-09-05T22:45:25.158Z,20.39
2022-09-05T22:47:52.235Z,20.50
2022-09-05T22:50:19.419Z,20.29
2022-09-05T22:52:46.370Z,20.39
2022-09-05T22:55:13.435Z,20.48
2022-09-05T22:57:41.151Z,20.57
2022-09-05T23:00:11.733Z,20.66
2022-09-05T23:02:38.742Z,20.51
2022-09-05T23:05:06.979Z,20.37
2022-09-05T23:07:34.352Z,20.51
2022-09-05T23:10:01.213Z,20.56
2022-09-05T23:12:29.605Z,20.45
2022-09-05T23:14:56.345Z,20.33
2022-09-05T23:17:23.274Z,20.49
2022-09-05T23:19:50.094Z,20.47
2022-09-05T23:22:17.788Z,20.44
2022-09-05T23:24:44.661Z,20.22
2022-09-05T23:27:11.513Z,20.35
2022-09-05T23:29:38.251Z,20.43
2022-09-05T23:32:05.550Z,20.55
2022-09-05T23:34:33.221Z,20.64
2022-09-05T23:37:00.108Z,20.71
2022-09-05T23:39:27.055Z,20.75
2022-09-05T23:41:54.521Z,20.79
2022-09-05T23:44:21.334Z,20.90
2022-09-05T23:46:49.432Z,20.60
2022-09-05T23:49:16.413Z,20.67
2022-09-05T23:51:43.349Z,20.71
2022-09-05T23:54:10.109Z,20.77
2022-09-05T23:56:36.950Z,20.69
2022-09-05T23:59:03.792Z,20.68
